Longford, Ireland
Current Conditions -  °F | °C
As of 6:00 PM on Sunday 25 Jan 2015 (Local Time) from EIME Reporting Station
Broken Clouds Broken Clouds  
Wind Chill: 52°   Ceiling: 2700
Heat Index: 52°   Visibility: 6mi
Dew Point: 46°   Wind: 17mph
Humidity: 82%   Direction: 230°SW
Pressure: 30.15"   Gusts: NA
Location:  53.09°N, 7.62°W
Report Text: EIME 251800Z 23015KT 9999 FEW019 BKN027 11/08 Q1021
Loading
Personal Weather Stations






























Interactive Weather Map New forecast layout! Learn more

10-Day Weather Forecast

Advertisements
Track Severe Weather on mobile